Data for 09/06/2013

Time Sea-Level Adjusted Pressure Absolute Pressure Temperature Relative Humidity Dew Point   
(mb) (inHg) (mb) (inHg) (C) (F) (%) (C) (F)
00:05 1022 30.18 851 25.13 14.7 58.4 81 11.4 52.5
00:10 1022 30.18 851 25.13 14.8 58.6 80 11.5 52.6
00:15 1022 30.18 851 25.13 14.8 58.7 80 11.4 52.5
00:20 1022 30.18 851 25.13 14.9 58.9 81 11.7 53
00:25 1022 30.18 851 25.13 14.5 58.1 81 11.3 52.4
00:30 1022 30.18 851 25.13 14.5 58.1 80 11.2 52.1
00:35 1022 30.18 851 25.13 14.5 58.1 81 11.2 52.2
00:40 1022 30.18 851 25.13 14.6 58.3 79 11.1 52
00:45 1022 30.18 851 25.13 14.8 58.6 79 11.3 52.3
00:50 1022 30.18 851 25.13 14.9 58.8 78 11.1 52
00:55 1022 30.18 851 25.13 15.2 59.3 75 10.7 51.3
01:00 1022 30.18 851 25.13 15.5 59.9 75 11.1 52
01:05 1022 30.18 851 25.13 15.5 59.9 75 11.1 52.1
01:10 1021 30.15 851 25.13 15.4 59.7 78 11.6 52.9
01:15 1021 30.15 851 25.13 14.8 58.7 78 11 51.8
01:20 1021 30.15 851 25.13 14.8 58.7 77 10.8 51.5
01:25 1021 30.15 851 25.13 14.7 58.4 80 11.2 52.2
01:30 1021 30.15 851 25.13 14.4 57.9 80 10.9 51.7
01:35 1021 30.15 851 25.13 14.3 57.7 80 10.9 51.5
01:40 1021 30.15 851 25.13 14.4 57.9 77 10.5 50.8
01:45 1021 30.15 850 25.1 14.5 58.1 78 10.7 51.3
01:50 1021 30.15 850 25.1 14.5 58.1 77 10.6 51
01:55 1021 30.15 850 25.1 14.6 58.2 76 10.5 50.9
02:00 1021 30.15 850 25.1 14.4 57.9 78 10.6 51
02:05 1021 30.15 850 25.1 14.1 57.4 78 10.4 50.7
02:10 1021 30.15 850 25.1 14 57.2 78 10.3 50.6
02:15 1021 30.15 850 25.1 14 57.2 77 10.1 50.2
02:20 1021 30.15 850 25.1 14.1 57.4 77 10.3 50.5
02:25 1021 30.15 851 25.13 14.1 57.3 77 10.2 50.3
02:30 1021 30.15 851 25.13 14 57.3 78 10.3 50.6
02:35 1021 30.15 851 25.13 14 57.2 77 10.1 50.1
02:40 1021 30.15 851 25.13 14 57.3 77 10 50
02:45 1021 30.15 851 25.13 14.2 57.6 76 10 50
02:50 1021 30.15 851 25.13 14.2 57.5 78 10.5 50.8
02:55 1021 30.15 851 25.13 14.1 57.4 77 10.1 50.2
03:00 1022 30.18 851 25.13 14.2 57.5 76 10.1 50.2
03:05 1022 30.18 851 25.13 14.2 57.5 76 10.1 50.1
03:10 1022 30.18 851 25.13 14.2 57.6 75 9.9 49.8
03:15 1022 30.18 851 25.13 13.8 56.9 78 10 50.1
03:20 1022 30.18 851 25.13 13.5 56.2 78 9.8 49.7
03:25 1022 30.18 851 25.13 13.3 56 80 10 50
03:30 1022 30.18 851 25.13 12.7 54.9 84 10.1 50.2
03:35 1022 30.18 851 25.13 12.4 54.3 83 9.7 49.4
03:40 1022 30.18 851 25.13 12.6 54.7 81 9.5 49.1
03:45 1021 30.15 851 25.13 12.7 54.9 80 9.3 48.8
03:50 1021 30.15 851 25.13 13.3 56 77 9.5 49.1
03:55 1021 30.15 851 25.13 13.7 56.6 77 9.9 49.7
04:00 1021 30.15 851 25.13 13.6 56.5 77 9.7 49.4
04:05 1022 30.18 851 25.13 13.5 56.3 77 9.6 49.3
04:10 1022 30.18 851 25.13 13.5 56.4 76 9.5 49
04:15 1021 30.15 851 25.13 13.4 56.1 79 9.9 49.8
04:20 1021 30.15 851 25.13 12.9 55.3 81 9.8 49.6
04:25 1022 30.18 851 25.13 12.9 55.1 81 9.6 49.3
04:30 1022 30.18 851 25.13 12.9 55.1 80 9.5 49.1
04:35 1022 30.18 851 25.13 13.1 55.5 77 9.2 48.6
04:40 1022 30.18 851 25.13 13.6 56.5 75 9.4 48.9
04:45 1022 30.18 851 25.13 13.7 56.6 74 9.2 48.6
04:50 1022 30.18 851 25.13 14.1 57.3 74 9.5 49.1
04:55 1022 30.18 851 25.13 13.8 56.8 75 9.5 49.1
05:00 1022 30.18 851 25.13 13.8 56.9 76 9.7 49.5
05:05 1022 30.18 851 25.13 13.3 55.9 78 9.6 49.3
05:10 1021 30.15 851 25.13 13 55.4 79 9.5 49.2
05:15 1022 30.18 851 25.13 13.2 55.8 77 9.3 48.7
05:20 1022 30.18 851 25.13 13.5 56.3 76 9.4 49
05:25 1022 30.18 851 25.13 13.5 56.3 77 9.6 49.3
05:30 1022 30.18 851 25.13 13.3 56 77 9.5 49.1
05:35 1022 30.18 851 25.13 13.4 56 77 9.4 48.9
05:40 1022 30.18 851 25.13 13.4 56.1 76 9.3 48.7
05:45 1022 30.18 851 25.13 13.2 55.8 77 9.3 48.8
05:50 1022 30.18 851 25.13 13 55.4 77 9 48.2
05:55 1022 30.18 851 25.13 13 55.4 76 9 48.1
06:00 1022 30.18 851 25.13 13.2 55.7 75 8.9 48
06:05 1022 30.18 851 25.13 13.4 56 77 9.4 48.9
06:10 1022 30.18 851 25.13 13.4 56 75 9.1 48.5
06:15 1022 30.18 851 25.13 13.7 56.7 76 9.6 49.3
06:20 1022 30.18 851 25.13 13.4 56.2 75 9.2 48.6
06:25 1022 30.18 851 25.13 13.8 56.8 75 9.4 49
06:30 1022 30.18 851 25.13 13.9 57.1 75 9.5 49.2
06:35 1022 30.18 851 25.13 14 57.2 74 9.4 48.9
06:40 1022 30.18 851 25.13 14.1 57.3 74 9.5 49.1
06:45 1022 30.18 851 25.13 14.1 57.4 73 9.5 49
06:50 1022 30.18 851 25.13 14.3 57.8 74 9.8 49.6
06:55 1022 30.18 851 25.13 14.5 58 71 9.4 48.9
07:00 1022 30.18 851 25.13 14.9 58.8 69 9.4 48.9
07:05 1022 30.18 851 25.13 15.4 59.7 67 9.5 49
07:10 1022 30.18 851 25.13 15.5 59.9 69 10 49.9
07:15 1022 30.18 851 25.13 15.6 60 69 9.9 49.9
07:20 1022 30.18 851 25.13 15.9 60.5 69 10.2 50.3
07:25 1022 30.18 851 25.13 16.3 61.4 66 10.1 50.1
07:30 1022 30.18 851 25.13 17.1 62.7 65 10.6 51.1
07:35 1021 30.15 851 25.13 17.4 63.3 66 11 51.9
07:40 1021 30.15 851 25.13 17.5 63.5 66 11.1 52.1
07:45 1021 30.15 851 25.13 17.9 64.2 64 11 51.9
07:50 1021 30.15 851 25.13 18.1 64.6 63 11.1 52
07:55 1022 30.18 851 25.13 18.8 65.9 63 11.8 53.2
08:00 1022 30.18 851 25.13 19.6 67.3 58 11.2 52.2
08:05 1022 30.18 851 25.13 20.4 68.7 55 11.3 52.3
08:10 1022 30.18 851 25.13 20.7 69.3 54 11.3 52.4
08:15 1022 30.18 851 25.13 19.7 67.5 57 11.1 51.9
08:20 1022 30.18 851 25.13 18.4 65.2 61 10.8 51.5
08:25 1022 30.18 851 25.13 17.8 64 63 10.8 51.5
08:30 1022 30.18 851 25.13 18.4 65.1 62 11.1 51.9
08:35 1022 30.18 851 25.13 18.4 65 62 11 51.8
08:40 1022 30.18 851 25.13 19.2 66.5 58 10.9 51.6
08:45 1022 30.18 851 25.13 19.5 67.1 59 11.3 52.3
08:50 1022 30.18 851 25.13 19.9 67.7 60 12 53.7
08:55 1022 30.18 851 25.13 20.4 68.7 57 11.7 53
09:00 1022 30.18 851 25.13 20.7 69.3 58 12.2 54
09:05 1022 30.18 851 25.13 19.3 66.8 61 11.8 53.2
09:10 1022 30.18 851 25.13 18.9 66 62 11.5 52.7
09:15 1022 30.18 851 25.13 20 68 58 11.5 52.7
09:20 1022 30.18 851 25.13 20.7 69.2 58 12.3 54.1
09:25 1022 30.18 851 25.13 20.8 69.5 54 11.3 52.3
09:30 1022 30.18 851 25.13 21.4 70.5 53 11.6 52.9
09:35 1021 30.15 851 25.13 21.1 69.9 54 11.6 52.8
09:40 1021 30.15 851 25.13 21.1 69.9 54 11.6 53
09:45 1021 30.15 851 25.13 21.1 70 52 11 51.7
09:50 1021 30.15 851 25.13 21.7 71.1 50 11.1 52
09:55 1021 30.15 851 25.13 22 71.7 50 11.4 52.4
10:00 1021 30.15 851 25.13 22 71.5 51 11.6 52.9
10:05 1021 30.15 851 25.13 21.7 71 51 11.3 52.3
10:10 1021 30.15 851 25.13 21.9 71.5 51 11.6 52.8
10:15 1021 30.15 851 25.13 22.2 71.9 51 11.8 53.2
10:20 1021 30.15 851 25.13 22.2 71.9 50 11.6 52.8
10:25 1021 30.15 851 25.13 22.4 72.3 51 11.9 53.5
10:30 1021 30.15 851 25.13 22 71.5 53 12.1 53.8
10:35 1021 30.15 851 25.13 21.8 71.2 53 11.9 53.3
10:40 1021 30.15 851 25.13 21.7 71 52 11.4 52.5
10:45 1021 30.15 851 25.13 22.3 72.1 50 11.4 52.6
10:50 1021 30.15 851 25.13 22.8 73 49 11.8 53.2
10:55 1021 30.15 850 25.1 22.1 71.7 50 11.2 52.2
11:00 1021 30.15 850 25.1 22 71.6 52 11.8 53.2
11:05 1021 30.15 850 25.1 22.2 71.9 50 11.4 52.5
11:10 1021 30.15 850 25.1 22.7 72.8 49 11.6 53
11:15 1021 30.15 850 25.1 22.4 72.4 49 11.4 52.5
11:20 1021 30.15 850 25.1 22.2 72 51 11.7 53
11:25 1021 30.15 850 25.1 22.4 72.2 50 11.4 52.6
11:30 1021 30.15 850 25.1 22.8 73 48 11.4 52.5
11:35 1021 30.15 850 25.1 22.8 73 49 11.6 52.8
11:40 1021 30.15 850 25.1 23.1 73.5 48 11.5 52.7
11:45 1021 30.15 850 25.1 23.5 74.3 46 11.5 52.6
11:50 1021 30.15 850 25.1 24.9 76.9 42 11.5 52.6
11:55 1021 30.15 850 25.1 25.2 77.3 43 11.9 53.5
12:00 1021 30.15 850 25.1 24.3 75.7 45 11.7 53.1
12:05 1021 30.15 850 25.1 25 77.1 43 11.7 53.1
12:10 1021 30.15 850 25.1 26.1 78.9 39 11.4 52.5
12:15 1020 30.12 850 25.1 26.3 79.3 41 12.1 53.8
12:20 1020 30.12 850 25.1 26.2 79.2 39 11.5 52.7
12:25 1020 30.12 850 25.1 26.4 79.5 38 11.3 52.4
12:30 1020 30.12 849 25.07 25.6 78 42 12 53.6
12:35 1020 30.12 849 25.07 26.5 79.7 38 11.3 52.3
12:40 1020 30.12 850 25.1 26.7 80.1 38 11.5 52.7
12:45 1020 30.12 850 25.1 26.1 78.9 41 12.2 53.9
12:50 1020 30.12 850 25.1 25.3 77.6 43 12.1 53.8
12:55 1020 30.12 850 25.1 25.3 77.6 42 11.7 53
13:00 1020 30.12 849 25.07 25.3 77.6 44 12.2 54
13:05 1020 30.12 849 25.07 25.4 77.7 42 11.7 53.1
13:10 1020 30.12 849 25.07 26 78.7 40 11.7 53.1
13:15 1020 30.12 849 25.07 26.1 79.1 40 11.7 53
13:20 1020 30.12 849 25.07 26.5 79.7 38 11.3 52.3
13:25 1020 30.12 849 25.07 26.8 80.2 37 11.1 51.9
13:30 1020 30.12 849 25.07 27.2 80.9 34 10.2 50.4
13:35 1020 30.12 849 25.07 27.4 81.2 37 11.5 52.7
13:40 1020 30.12 849 25.07 27.6 81.7 34 10.6 51
13:45 1020 30.12 849 25.07 28.5 83.2 34 11.2 52.1
13:50 1019 30.09 849 25.07 27.4 81.4 38 12.3 54.1
13:55 1019 30.09 849 25.07 27.2 80.9 35 10.7 51.3
14:00 1019 30.09 848 25.04 28 82.5 34 10.9 51.6
14:05 1019 30.09 848 25.04 28.3 82.9 33 11 51.8
14:10 1019 30.09 848 25.04 28.8 83.8 34 11.5 52.7
14:15 1019 30.09 848 25.04 28.9 84 33 11.2 52.2
14:20 1019 30.09 848 25.04 29.5 85 31 10.9 51.5
14:25 1019 30.09 848 25.04 29.7 85.4 31 11.1 52
14:30 1019 30.09 848 25.04 29.8 85.6 30 10.8 51.5
14:35 1019 30.09 848 25.04 29.5 85.1 31 10.8 51.5
14:40 1019 30.09 848 25.04 29.3 84.8 32 11.1 52
14:45 1019 30.09 848 25.04 29.4 84.8 35 12.5 54.6
14:50 1019 30.09 848 25.04 28.4 83.1 33 10.8 51.5
14:55 1019 30.09 848 25.04 28.4 83.1 34 11.1 52
15:00 1018 30.06 848 25.04 28.3 83 36 11.9 53.4
15:05 1018 30.06 848 25.04 28.4 83.2 34 11.3 52.3
15:10 1019 30.09 848 25.04 28.8 83.8 34 11.6 52.8
15:15 1019 30.09 848 25.04 28.9 84 33 11.5 52.7
15:20 1018 30.06 848 25.04 29.9 85.7 31 11.4 52.5
15:25 1018 30.06 848 25.04 30 86 33 12.1 53.8
15:30 1018 30.06 847 25.01 28.8 83.9 34 11.6 52.9
15:35 1018 30.06 847 25.01 28.3 83 34 11.1 51.9
15:40 1018 30.06 847 25.01 28.3 83 33 10.9 51.6
15:45 1018 30.06 847 25.01 28.7 83.7 33 11.3 52.3
15:50 1018 30.06 847 25.01 29.1 84.4 32 11 51.9
15:55 1018 30.06 847 25.01 29.6 85.2 32 11.3 52.3
16:00 1018 30.06 847 25.01 29.2 84.5 32 11 51.8
16:05 1018 30.06 847 25.01 29.4 85 31 10.9 51.6
16:10 1018 30.06 847 25.01 29.4 84.9 31 10.8 51.4
16:15 1018 30.06 847 25.01 29.5 85 30 10.2 50.4
16:20 1018 30.06 847 25.01 29.6 85.3 31 10.9 51.6
16:25 1018 30.06 847 25.01 29.8 85.6 30 10.5 50.8
16:30 1018 30.06 847 25.01 29.8 85.6 28 9.8 49.6
16:35 1018 30.06 847 25.01 30 86 28 9.8 49.6
16:40 1018 30.06 847 25.01 30.1 86.1 28 10.1 50.2
16:45 1018 30.06 847 25.01 30 85.9 29 10.3 50.5
16:50 1018 30.06 847 25.01 30.2 86.4 27 9.5 49.1
16:55 1018 30.06 847 25.01 30.7 87.2 26 9.4 48.9
17:00 1018 30.06 847 25.01 30.9 87.6 27 9.9 49.9
17:05 1018 30.06 847 25.01 30.4 86.7 28 10.3 50.6
17:10 1018 30.06 847 25.01 30.1 86.1 29 10.5 51
17:15 1018 30.06 847 25.01 29.5 85.1 33 11.9 53.4
17:20 1018 30.06 847 25.01 29.1 84.3 25 7.6 45.7
17:25 1018 30.06 847 25.01 29.4 84.9 20 4.5 40.1
17:30 1018 30.06 847 25.01 29.8 85.7 23 6.5 43.7
17:35 1018 30.06 847 25.01 29.8 85.7 26 8.7 47.7
17:40 1018 30.06 847 25.01 29.4 84.9 24 7.1 44.8
17:45 1018 30.06 847 25.01 29.3 84.8 24 7.3 45.1
17:50 1018 30.06 847 25.01 29.2 84.6 22 5.9 42.6
17:55 1018 30.06 847 25.01 29.2 84.5 26 8 46.3
18:00 1018 30.06 847 25.01 29 84.1 31 10.5 50.9
18:05 1018 30.06 847 25.01 28.4 83.2 32 10.2 50.4
18:10 1018 30.06 847 25.01 28.3 83 30 9.3 48.7
18:15 1018 30.06 847 25.01 28.3 83 33 10.8 51.4
18:20 1018 30.06 847 25.01 28 82.4 37 12.2 53.9
18:25 1018 30.06 847 25.01 27.8 82 36 11.5 52.6
18:30 1018 30.06 847 25.01 27.7 81.9 28 7.7 45.9
18:35 1018 30.06 847 25.01 27.8 82.1 28 7.8 46.1
18:40 1018 30.06 847 25.01 27.8 82 28 7.6 45.8
18:45 1018 30.06 847 25.01 27.5 81.5 35 11 51.8
18:50 1018 30.06 847 25.01 27 80.7 36 10.9 51.7
18:55 1018 30.06 847 25.01 26.8 80.3 29 7.7 45.8
19:00 1018 30.06 847 25.01 26.8 80.2 30 8.3 46.9
19:05 1018 30.06 847 25.01 26.7 80 33 9.2 48.6
19:10 1018 30.06 847 25.01 26.1 78.9 35 9.5 49.1
19:15 1018 30.06 847 25.01 25.6 78 32 7.8 46
19:20 1018 30.06 847 25.01 25.9 78.7 31 7.6 45.7
19:25 1018 30.06 847 25.01 26 78.8 32 8.2 46.8
19:30 1018 30.06 847 25.01 25.8 78.4 31 7.8 46
19:35 1018 30.06 848 25.04 25.8 78.4 32 8 46.4
19:40 1018 30.06 848 25.04 25.5 78 32 7.9 46.2
19:45 1019 30.09 848 25.04 25.3 77.6 33 8.1 46.5
19:50 1019 30.09 848 25.04 25.3 77.5 32 7.8 46.1
19:55 1019 30.09 848 25.04 25.2 77.3 32 7.5 45.6
20:00 1019 30.09 848 25.04 25.2 77.4 31 7.2 45
20:05 1019 30.09 848 25.04 25.4 77.7 30 6.8 44.2
20:10 1019 30.09 848 25.04 25.5 77.9 32 7.7 45.8
20:15 1019 30.09 848 25.04 25.1 77.2 32 7.5 45.6
20:20 1019 30.09 848 25.04 24.8 76.7 34 7.9 46.3
20:25 1019 30.09 848 25.04 24.4 75.9 35 8 46.5
20:30 1019 30.09 848 25.04 24.3 75.7 34 7.5 45.5
20:35 1019 30.09 848 25.04 24 75.1 33 7.1 44.8
20:40 1019 30.09 848 25.04 23.7 74.6 34 6.9 44.4
20:45 1019 30.09 848 25.04 23.7 74.6 33 6.8 44.3
20:50 1019 30.09 849 25.07 23.5 74.2 34 7.1 44.8
20:55 1019 30.09 849 25.07 23.2 73.8 35 7.1 44.8
21:00 1019 30.09 849 25.07 23 73.4 36 7.1 44.8
21:05 1019 30.09 849 25.07 22.9 73.2 35 6.9 44.5
21:10 1020 30.12 849 25.07 22.8 73 36 7.1 44.7
21:15 1020 30.12 849 25.07 22.6 72.7 35 6.8 44.2
21:20 1020 30.12 849 25.07 22.6 72.7 35 6.7 44.1
21:25 1020 30.12 849 25.07 22.6 72.7 35 6.7 44.1
21:30 1020 30.12 849 25.07 22.5 72.5 35 6.5 43.6
21:35 1020 30.12 849 25.07 22.4 72.4 35 6.4 43.6
21:40 1020 30.12 849 25.07 22.3 72.1 36 6.5 43.7
21:45 1020 30.12 849 25.07 22.2 71.9 37 7.1 44.7
21:50 1020 30.12 849 25.07 21.9 71.4 37 6.7 44.1
21:55 1020 30.12 849 25.07 21.9 71.4 38 6.9 44.5
22:00 1020 30.12 849 25.07 21.8 71.2 39 7.2 45
22:05 1020 30.12 849 25.07 21.6 70.8 38 6.7 44.1
22:10 1020 30.12 849 25.07 21.6 71 37 6.3 43.4
22:15 1020 30.12 849 25.07 21.7 71.1 37 6.7 44.1
22:20 1020 30.12 849 25.07 21.6 70.8 37 6.5 43.7
22:25 1020 30.12 849 25.07 21.5 70.6 37 6.3 43.4
22:30 1020 30.12 849 25.07 21.5 70.8 37 6.3 43.3
22:35 1020 30.12 849 25.07 21.5 70.6 35 5.7 42.3
22:40 1020 30.12 849 25.07 21.6 70.9 36 5.9 42.6
22:45 1020 30.12 849 25.07 21.5 70.6 35 5.7 42.3
22:50 1020 30.12 849 25.07 21.4 70.6 35 5.4 41.7
22:55 1020 30.12 849 25.07 21.5 70.6 35 5.7 42.3
23:00 1020 30.12 849 25.07 21.5 70.7 36 5.9 42.6
23:05 1020 30.12 849 25.07 21.3 70.4 36 5.6 42.1
23:10 1020 30.12 849 25.07 21.4 70.4 36 6 42.8
23:15 1020 30.12 849 25.07 21.4 70.5 36 5.9 42.6
23:20 1020 30.12 849 25.07 21.1 70 37 6.1 43
23:25 1020 30.12 849 25.07 21 69.7 36 5.6 42
23:30 1020 30.12 849 25.07 21.2 70.2 36 5.9 42.6
23:35 1020 30.12 849 25.07 21.1 69.9 37 5.9 42.6
23:40 1020 30.12 849 25.07 21.4 70.4 34 5.2 41.4
23:45 1020 30.12 849 25.07 21.5 70.7 35 5.6 42.1
23:50 1020 30.12 849 25.07 21.5 70.6 35 5.4 41.7
23:55 1020 30.12 849 25.07 21.5 70.6 35 5.4 41.8
24:00 1020 30.12 849 25.07 21.3 70.4 36 5.9 42.6